Max Planck — ELZY8 — position and weather

sailwx.info

Track history (hours):
 
Tides and Currents Weather Stations Pressure Air Temp Water Temp Dewpoint Dewpoint Depression Visibility Wind Speed Wind Dir Waves Ship Positions

Max Planck

Last reported at 2018-Apr-13 17:15 UTC. Time now 2018-Apr-21 08:04 UTC.
Position N 33°57' E 129°17'.

Length 99.9 m; beam 16.2 m; draft 6.8 m.

Type: Ship. MMSI: 636017362.

Date/timePositionNaut miles runAvg speedWind from/ knotsBaromVisibWave heightAir tempDewpointWater temp
2018-Apr-13 17:15N 33°57' E 129°17'3 9.1
2018-Apr-13 16:57N 33°58' E 129°20'9 8.8
2018-Apr-13 15:54N 33°60' E 129°31'4 8.8
2018-Apr-13 15:30N 34°01' E 129°35'4 8.7
2018-Apr-13 15:00N 34°02' E 129°40'13 8.6
2018-Apr-13 13:30N 34°03' E 129°55'4 8.9
2018-Apr-13 13:00N 34°03' E 130°01'4 8.9
2018-Apr-13 12:31N 34°03' E 130°06'5 9.1
2018-Apr-13 12:00N 34°03' E 130°11'14 9.4
2018-Apr-13 10:30N 34°03' E 130°28'5 9.5
2018-Apr-13 10:00N 34°03' E 130°34'9 9.4
2018-Apr-13 09:01N 34°03' E 130°45'4 8.7
2018-Apr-13 08:30N 34°01' E 130°51'4 8.3
2018-Apr-13 08:01N 33°58' E 130°52'4 7.9
2018-Apr-13 07:31N 33°55' E 130°55'4 8.6
2018-Apr-13 07:00N 33°58' E 130°58'4 8.1
2018-Apr-13 06:30N 33°57' E 131°03'4 9.0
2018-Apr-13 06:01N 33°55' E 131°08'3 6.3
2018-Apr-13 05:31N 33°53' E 131°11'3 5.9
2018-Apr-13 05:01N 33°52' E 131°14'3 5.7
2018-Apr-13 04:31N 33°52' E 131°17'3 5.6
2018-Apr-13 04:01N 33°52' E 131°21'3 5.4
2018-Apr-13 03:30N 33°52' E 131°24'3 5.5
2018-Apr-13 03:00N 33°53' E 131°27'3 5.5
2018-Apr-13 02:30N 33°53' E 131°31'3 5.5
2018-Apr-13 02:00N 33°54' E 131°34'3 5.3
2018-Apr-13 01:30N 33°54' E 131°37'3 5.5
2018-Apr-13 01:01N 33°54' E 131°40'3 5.4
2018-Apr-13 00:30N 33°55' E 131°43'3 5.9
2018-Apr-13 00:00N 33°58' E 131°45'4 8.5
2018-Apr-12 23:31N 34°01' E 131°48'1 2.3
2018-Apr-12 22:59N 34°02' E 131°49'0 0.0
2018-Apr-12 22:31N 34°02' E 131°49'0 0.0
2018-Apr-12 22:01N 34°02' E 131°49'0 0.0
2018-Apr-12 08:23N 34°02' E 131°49'2 5.0
2018-Apr-12 08:00N 34°01' E 131°47'0 0.7
2018-Apr-12 07:29N 34°00' E 131°47'0 0.0
2018-Apr-12 06:58N 34°00' E 131°47'0 0.0
2018-Apr-12 06:30N 34°00' E 131°47'0 0.0
2018-Apr-12 05:58N 34°00' E 131°47'0 0.0
2018-Apr-12 05:30N 34°00' E 131°47'0 0.0
2018-Apr-12 05:00N 34°00' E 131°47'0 0.0
2018-Apr-12 04:29N 34°00' E 131°47'0 0.0
2018-Apr-12 04:00N 34°00' E 131°47'0 0.0
2018-Apr-12 03:30N 34°00' E 131°47'0 0.0
2018-Apr-12 03:00N 34°00' E 131°47'0 0.0
2018-Apr-12 02:31N 34°00' E 131°47'0 0.0
2018-Apr-12 02:00N 34°00' E 131°47'0 0.0
2018-Apr-12 01:30N 34°00' E 131°47'0 0.1
2018-Apr-12 01:00N 34°00' E 131°47'0 0.2
2018-Apr-12 00:30N 34°00' E 131°47'0 0.1
2018-Apr-12 00:00N 34°00' E 131°47'0 0.0
2018-Apr-11 23:30N 34°00' E 131°47'0 0.0
2018-Apr-11 23:00N 34°00' E 131°47'0 0.0
2018-Apr-11 22:30N 34°00' E 131°47'0 0.0
2018-Apr-11 21:59N 34°00' E 131°47'0 0.0
2018-Apr-11 21:30N 34°00' E 131°47'0 0.0
2018-Apr-11 21:00N 34°00' E 131°47'0 0.0
2018-Apr-11 20:30N 34°00' E 131°47'0 0.1
2018-Apr-11 19:59N 34°00' E 131°47'0 0.0
2018-Apr-11 19:30N 34°00' E 131°47'0 0.0
2018-Apr-11 19:00N 34°00' E 131°47'0 0.0
2018-Apr-11 18:29N 34°00' E 131°47'1 2.4
2018-Apr-11 18:00N 33°60' E 131°46'510.0
2018-Apr-11 17:31N 33°55' E 131°43'611.2
2018-Apr-11 17:00N 33°54' E 131°37'611.4
2018-Apr-11 16:30N 33°52' E 131°30'611.7
2018-Apr-11 16:01N 33°51' E 131°23'611.7
2018-Apr-11 15:30N 33°50' E 131°16'611.8
2018-Apr-11 15:00N 33°53' E 131°10'612.1
2018-Apr-11 14:30N 33°56' E 131°04'510.5
2018-Apr-11 14:01N 33°58' E 130°58'5 9.3
2018-Apr-11 13:30N 33°55' E 130°53'5 9.4
2018-Apr-11 13:01N 33°60' E 130°52'5 9.2
2018-Apr-11 12:30N 34°02' E 130°47'5 9.8
2018-Apr-11 12:01N 34°02' E 130°42'5 9.7
2018-Apr-11 11:30N 34°02' E 130°36'5 9.8
2018-Apr-11 11:00N 34°02' E 130°30'5 9.8
2018-Apr-11 10:29N 34°02' E 130°24'5 9.8
2018-Apr-11 09:58N 34°02' E 130°17'5 9.9
2018-Apr-11 09:29N 34°02' E 130°12'395 9.9
2018-Apr-09 17:31N 31°07' E 123°12'0 8.2
2018-Apr-09 17:30N 31°07' E 123°12'35 9.5
2018-Apr-09 13:48N 30°53' E 122°34'711.8
2018-Apr-09 13:14N 30°51' E 122°27'413.8
2018-Apr-09 12:57N 30°50' E 122°23'613.3
2018-Apr-09 12:30N 30°46' E 122°18'1711.4
2018-Apr-09 10:59N 30°32' E 122°05'613.0
2018-Apr-09 10:31N 30°31' E 121°58'  
Track history (hours):
 
Tides and Currents Weather Stations Pressure Air Temp Water Temp Dewpoint Dewpoint Depression Visibility Wind Speed Wind Dir Waves Ship Positions

Max Planck

Last reported at 2018-Apr-13 17:15 UTC. Time now 2018-Apr-21 08:04 UTC.
Position N 33°57' E 129°17'.

Length 99.9 m; beam 16.2 m; draft 6.8 m.

Type: Ship. MMSI: 636017362.

Date/timePositionNaut miles runAvg speedWind from/ knotsBaromVisibWave heightAir tempDewpointWater temp
2018-Apr-13 17:15N 33°57' E 129°17'3 9.1
2018-Apr-13 16:57N 33°58' E 129°20'9 8.8
2018-Apr-13 15:54N 33°60' E 129°31'4 8.8
2018-Apr-13 15:30N 34°01' E 129°35'4 8.7
2018-Apr-13 15:00N 34°02' E 129°40'13 8.6
2018-Apr-13 13:30N 34°03' E 129°55'4 8.9
2018-Apr-13 13:00N 34°03' E 130°01'4 8.9
2018-Apr-13 12:31N 34°03' E 130°06'5 9.1
2018-Apr-13 12:00N 34°03' E 130°11'14 9.4
2018-Apr-13 10:30N 34°03' E 130°28'5 9.5
2018-Apr-13 10:00N 34°03' E 130°34'9 9.4
2018-Apr-13 09:01N 34°03' E 130°45'4 8.7
2018-Apr-13 08:30N 34°01' E 130°51'4 8.3
2018-Apr-13 08:01N 33°58' E 130°52'4 7.9
2018-Apr-13 07:31N 33°55' E 130°55'4 8.6
2018-Apr-13 07:00N 33°58' E 130°58'4 8.1
2018-Apr-13 06:30N 33°57' E 131°03'4 9.0
2018-Apr-13 06:01N 33°55' E 131°08'3 6.3
2018-Apr-13 05:31N 33°53' E 131°11'3 5.9
2018-Apr-13 05:01N 33°52' E 131°14'3 5.7
2018-Apr-13 04:31N 33°52' E 131°17'3 5.6
2018-Apr-13 04:01N 33°52' E 131°21'3 5.4
2018-Apr-13 03:30N 33°52' E 131°24'3 5.5
2018-Apr-13 03:00N 33°53' E 131°27'3 5.5
2018-Apr-13 02:30N 33°53' E 131°31'3 5.5
2018-Apr-13 02:00N 33°54' E 131°34'3 5.3
2018-Apr-13 01:30N 33°54' E 131°37'3 5.5
2018-Apr-13 01:01N 33°54' E 131°40'3 5.4
2018-Apr-13 00:30N 33°55' E 131°43'3 5.9
2018-Apr-13 00:00N 33°58' E 131°45'4 8.5
2018-Apr-12 23:31N 34°01' E 131°48'1 2.3
2018-Apr-12 22:59N 34°02' E 131°49'0 0.0
2018-Apr-12 22:31N 34°02' E 131°49'0 0.0
2018-Apr-12 22:01N 34°02' E 131°49'0 0.0
2018-Apr-12 08:23N 34°02' E 131°49'2 5.0
2018-Apr-12 08:00N 34°01' E 131°47'0 0.7
2018-Apr-12 07:29N 34°00' E 131°47'0 0.0
2018-Apr-12 06:58N 34°00' E 131°47'0 0.0
2018-Apr-12 06:30N 34°00' E 131°47'0 0.0
2018-Apr-12 05:58N 34°00' E 131°47'0 0.0
2018-Apr-12 05:30N 34°00' E 131°47'0 0.0
2018-Apr-12 05:00N 34°00' E 131°47'0 0.0
2018-Apr-12 04:29N 34°00' E 131°47'0 0.0
2018-Apr-12 04:00N 34°00' E 131°47'0 0.0
2018-Apr-12 03:30N 34°00' E 131°47'0 0.0
2018-Apr-12 03:00N 34°00' E 131°47'0 0.0
2018-Apr-12 02:31N 34°00' E 131°47'0 0.0
2018-Apr-12 02:00N 34°00' E 131°47'0 0.0
2018-Apr-12 01:30N 34°00' E 131°47'0 0.1
2018-Apr-12 01:00N 34°00' E 131°47'0 0.2
2018-Apr-12 00:30N 34°00' E 131°47'0 0.1
2018-Apr-12 00:00N 34°00' E 131°47'0 0.0
2018-Apr-11 23:30N 34°00' E 131°47'0 0.0
2018-Apr-11 23:00N 34°00' E 131°47'0 0.0
2018-Apr-11 22:30N 34°00' E 131°47'0 0.0
2018-Apr-11 21:59N 34°00' E 131°47'0 0.0
2018-Apr-11 21:30N 34°00' E 131°47'0 0.0
2018-Apr-11 21:00N 34°00' E 131°47'0 0.0
2018-Apr-11 20:30N 34°00' E 131°47'0 0.1
2018-Apr-11 19:59N 34°00' E 131°47'0 0.0
2018-Apr-11 19:30N 34°00' E 131°47'0 0.0
2018-Apr-11 19:00N 34°00' E 131°47'0 0.0
2018-Apr-11 18:29N 34°00' E 131°47'1 2.4
2018-Apr-11 18:00N 33°60' E 131°46'510.0
2018-Apr-11 17:31N 33°55' E 131°43'611.2
2018-Apr-11 17:00N 33°54' E 131°37'611.4
2018-Apr-11 16:30N 33°52' E 131°30'611.7
2018-Apr-11 16:01N 33°51' E 131°23'611.7
2018-Apr-11 15:30N 33°50' E 131°16'611.8
2018-Apr-11 15:00N 33°53' E 131°10'612.1
2018-Apr-11 14:30N 33°56' E 131°04'510.5
2018-Apr-11 14:01N 33°58' E 130°58'5 9.3
2018-Apr-11 13:30N 33°55' E 130°53'5 9.4
2018-Apr-11 13:01N 33°60' E 130°52'5 9.2
2018-Apr-11 12:30N 34°02' E 130°47'5 9.8
2018-Apr-11 12:01N 34°02' E 130°42'5 9.7
2018-Apr-11 11:30N 34°02' E 130°36'5 9.8
2018-Apr-11 11:00N 34°02' E 130°30'5 9.8
2018-Apr-11 10:29N 34°02' E 130°24'5 9.8
2018-Apr-11 09:58N 34°02' E 130°17'5 9.9
2018-Apr-11 09:29N 34°02' E 130°12'395 9.9
2018-Apr-09 17:31N 31°07' E 123°12'0 8.2
2018-Apr-09 17:30N 31°07' E 123°12'35 9.5
2018-Apr-09 13:48N 30°53' E 122°34'711.8
2018-Apr-09 13:14N 30°51' E 122°27'413.8
2018-Apr-09 12:57N 30°50' E 122°23'613.3
2018-Apr-09 12:30N 30°46' E 122°18'1711.4
2018-Apr-09 10:59N 30°32' E 122°05'613.0
2018-Apr-09 10:31N 30°31' E 121°58'  

Dump ship's entire track history